Aviation Digital Data Service (ADDS)

Output produced by METARs form (1716 UTC 20 January 2019)
found at http://www.aviationweather.gov/metar/data/
 
LOWG 201650Z 10002KT CAVOK M01/M04 Q1015 NOSIG
TAF LOWG 201115Z 2012/2112 VRB02KT 9999 FEW030 SCT180 TX01/2112Z TNM04/2104Z 
     BECMG 2018/2021 BKN025 
     BECMG 2101/2103 BKN012 
     BECMG 2108/2110 BKN020
       
LOWI 201650Z VRB02KT 9999 FEW070 BKN090 M01/M07 Q1014 NOSIG
TAF LOWI 201115Z 2012/2112 27005KT CAVOK TXM00/2014Z TNM05/2108Z 
     BECMG 2012/2014 9999 FEW060 BKN080 
     TEMPO 2015/2106 -SN FEW030 BKN050 
     BECMG 2108/2110 SCT060
       
LOWK 201650Z 30003KT 9999 FEW020 M03/M05 Q1015 R10L/19//95 NOSIG
TAF LOWK 201115Z 2012/2112 VRB02KT 9999 BKN025 TX00/2014Z TNM07/2105Z 
     TEMPO 2012/2020 FEW025 
     TEMPO 2020/2108 4000 BR 
     PROB30 
     TEMPO 2022/2109 BKN008
       
LOWL 201650Z AUTO VRB01KT 9999 BKN048 M04/M06 Q1017 NOSIG
TAF LOWL 201115Z 2012/2112 09004KT 9999 BKN013 TXM02/2014Z TNM06/2107Z 
     TEMPO 2012/2112 VRB02KT BKN017
       
LOWS 201650Z 06002KT 9999 BKN050 M01/M05 Q1015 NOSIG
TAF LOWS 201115Z 2012/2112 15005KT 9999 FEW070 SCT100 TXM01/2014Z TNM07/2106Z 
     TEMPO 2012/2016 35005KT 
     BECMG 2020/2022 FEW050 BKN070 
     BECMG 2107/2109 01005KT
       
LOWW 201650Z 32004KT 9999 FEW020 BKN024 M01/M04 Q1017 R88/19//95 NOSIG
TAF LOWW 201415Z 2015/2121 34007KT 9999 BKN020 TXM00/2015Z TNM06/2106Z 
     BECMG 2022/2024 CAVOK 
     BECMG 2116/2118 VRB02KT
       
TAF LOXT 200815Z 2009/2018 25005KT 9999 FEW015 BKN018 
     TEMPO 2009/2011 5000 BR BKN015 
     BECMG 2013/2015 BKN025
       
LOAV 201600Z 28015KT 10KM FEW008ST BKN020SC M02/M06
TAF LOAV 201125Z 2012/2021 30008KT 9999 BKN015 
     TEMPO 2012/2016 BKN020 
     BECMG 2016/2018 SCT025
       
LOAN 201600Z 34005KT 10KM OVC020SC
TAF AMD LOAN 201217Z 2012/2021 02005KT 9999 BKN015 
     TEMPO 2012/2016 BKN020 
     BECMG 2016/2018 SCT025
       
LOXZ 201650Z 26001KT 10KM SCT200CI M08/M11 Q1014
TAF LOXZ 201115Z 2012/2021 VRB03KT 9999 SCT200 
     PROB30 
     TEMPO 2020/2021 0800 FZBCFG